sensor_id;sensor_type;location;lat;lon;timestamp;pressure;altitude;pressure_sealevel;temperature;humidity
10474;BME280;5284;50.446;7.904;2023-07-16T00:00:56;98038.13;;;19.99;90.11
10474;BME280;5284;50.446;7.904;2023-07-16T00:05:59;98049.94;;;19.92;91.27
10474;BME280;5284;50.446;7.904;2023-07-16T00:11:04;98040.09;;;19.84;92.22
10474;BME280;5284;50.446;7.904;2023-07-16T00:16:07;98043.22;;;19.81;91.22
10474;BME280;5284;50.446;7.904;2023-07-16T00:21:10;98033.78;;;19.71;92.60
10474;BME280;5284;50.446;7.904;2023-07-16T00:26:14;98035.22;;;19.67;92.80
10474;BME280;5284;50.446;7.904;2023-07-16T00:31:18;98048.91;;;19.59;94.77
10474;BME280;5284;50.446;7.904;2023-07-16T00:36:21;98058.66;;;19.53;94.57
10474;BME280;5284;50.446;7.904;2023-07-16T00:41:25;98068.41;;;19.48;95.29
10474;BME280;5284;50.446;7.904;2023-07-16T00:46:28;98068.41;;;19.48;95.35
10474;BME280;5284;50.446;7.904;2023-07-16T00:51:31;98074.63;;;19.42;96.35
10474;BME280;5284;50.446;7.904;2023-07-16T00:56:37;98085.63;;;19.40;96.98
10474;BME280;5284;50.446;7.904;2023-07-16T01:01:40;98079.56;;;19.38;97.18
10474;BME280;5284;50.446;7.904;2023-07-16T01:06:46;98091.44;;;19.37;96.87
10474;BME280;5284;50.446;7.904;2023-07-16T01:11:53;98081.66;;;19.36;100.00
10474;BME280;5284;50.446;7.904;2023-07-16T01:16:56;98091.19;;;19.32;97.59
10474;BME280;5284;50.446;7.904;2023-07-16T01:22:12;98084.69;;;19.27;97.47
10474;BME280;5284;50.446;7.904;2023-07-16T01:27:42;98084.25;;;19.23;97.55
10474;BME280;5284;50.446;7.904;2023-07-16T01:32:48;98093.97;;;19.18;98.75
10474;BME280;5284;50.446;7.904;2023-07-16T01:37:52;98108.31;;;19.18;98.30
10474;BME280;5284;50.446;7.904;2023-07-16T01:42:55;98108.63;;;19.09;99.12
10474;BME280;5284;50.446;7.904;2023-07-16T01:48:07;98105.06;;;19.08;98.97
10474;BME280;5284;50.446;7.904;2023-07-16T01:53:16;98110.69;;;19.07;98.96
10474;BME280;5284;50.446;7.904;2023-07-16T01:58:19;98120.41;;;19.01;99.40
10474;BME280;5284;50.446;7.904;2023-07-16T02:03:24;98116.81;;;18.94;99.27
10474;BME280;5284;50.446;7.904;2023-07-16T02:08:28;98119.34;;;18.81;100.00
10474;BME280;5284;50.446;7.904;2023-07-16T02:13:31;98130.38;;;18.80;100.00
10474;BME280;5284;50.446;7.904;2023-07-16T02:18:35;98125.75;;;18.74;100.00
10474;BME280;5284;50.446;7.904;2023-07-16T02:23:39;98114.00;;;18.67;100.00
10474;BME280;5284;50.446;7.904;2023-07-16T02:28:42;98128.22;;;18.54;100.00
10474;BME280;5284;50.446;7.904;2023-07-16T02:33:46;98136.78;;;18.44;100.00
10474;BME280;5284;50.446;7.904;2023-07-16T02:38:49;98149.75;;;18.34;100.00
10474;BME280;5284;50.446;7.904;2023-07-16T02:43:59;98154.75;;;18.22;100.00
10474;BME280;5284;50.446;7.904;2023-07-16T02:49:04;98153.19;;;18.13;100.00
10474;BME280;5284;50.446;7.904;2023-07-16T02:54:07;98157.56;;;18.00;100.00
10474;BME280;5284;50.446;7.904;2023-07-16T02:59:10;98172.84;;;17.93;100.00
10474;BME280;5284;50.446;7.904;2023-07-16T03:04:14;98190.31;;;17.82;100.00
10474;BME280;5284;50.446;7.904;2023-07-16T03:09:17;98186.03;;;17.73;100.00
10474;BME280;5284;50.446;7.904;2023-07-16T03:14:20;98192.81;;;17.69;100.00
10474;BME280;5284;50.446;7.904;2023-07-16T03:19:24;98200.78;;;17.63;100.00
10474;BME280;5284;50.446;7.904;2023-07-16T03:24:28;98209.13;;;17.53;100.00
10474;BME280;5284;50.446;7.904;2023-07-16T03:29:32;98208.84;;;17.48;100.00
10474;BME280;5284;50.446;7.904;2023-07-16T03:34:37;98212.44;;;17.41;100.00
10474;BME280;5284;50.446;7.904;2023-07-16T03:39:40;98214.31;;;17.32;100.00
10474;BME280;5284;50.446;7.904;2023-07-16T03:44:44;98214.00;;;17.27;100.00
10474;BME280;5284;50.446;7.904;2023-07-16T03:49:48;98220.44;;;17.26;100.00
10474;BME280;5284;50.446;7.904;2023-07-16T03:54:52;98222.00;;;17.21;100.00
10474;BME280;5284;50.446;7.904;2023-07-16T03:59:55;98220.66;;;17.17;100.00
10474;BME280;5284;50.446;7.904;2023-07-16T04:05:00;98220.19;;;17.13;100.00
10474;BME280;5284;50.446;7.904;2023-07-16T04:10:04;98217.88;;;17.10;100.00
10474;BME280;5284;50.446;7.904;2023-07-16T04:15:08;98228.66;;;17.10;100.00
10474;BME280;5284;50.446;7.904;2023-07-16T04:20:13;98232.16;;;17.11;100.00
10474;BME280;5284;50.446;7.904;2023-07-16T04:25:16;98229.31;;;17.12;100.00
10474;BME280;5284;50.446;7.904;2023-07-16T04:30:20;98239.06;;;17.13;100.00
10474;BME280;5284;50.446;7.904;2023-07-16T04:35:24;98244.09;;;17.16;100.00
10474;BME280;5284;50.446;7.904;2023-07-16T04:40:30;98252.47;;;17.21;100.00
10474;BME280;5284;50.446;7.904;2023-07-16T04:45:33;98254.81;;;17.24;100.00
10474;BME280;5284;50.446;7.904;2023-07-16T04:50:38;98260.34;;;17.31;100.00
10474;BME280;5284;50.446;7.904;2023-07-16T04:55:41;98266.22;;;17.34;100.00
10474;BME280;5284;50.446;7.904;2023-07-16T05:00:44;98276.63;;;17.45;100.00
10474;BME280;5284;50.446;7.904;2023-07-16T05:05:48;98282.09;;;17.52;100.00
10474;BME280;5284;50.446;7.904;2023-07-16T05:10:51;98298.72;;;17.63;100.00
10474;BME280;5284;50.446;7.904;2023-07-16T05:15:54;98306.50;;;17.81;100.00
10474;BME280;5284;50.446;7.904;2023-07-16T05:20:58;98303.09;;;18.01;99.85
10474;BME280;5284;50.446;7.904;2023-07-16T05:26:01;98309.84;;;18.20;98.13
10474;BME280;5284;50.446;7.904;2023-07-16T05:31:04;98320.66;;;18.20;96.26
10474;BME280;5284;50.446;7.904;2023-07-16T05:36:09;98320.25;;;18.31;96.00
10474;BME280;5284;50.446;7.904;2023-07-16T05:41:11;98337.34;;;18.23;94.26
10474;BME280;5284;50.446;7.904;2023-07-16T05:46:15;98336.50;;;18.59;91.66
10474;BME280;5284;50.446;7.904;2023-07-16T05:51:19;98349.72;;;18.69;89.52
10474;BME280;5284;50.446;7.904;2023-07-16T05:56:23;98350.75;;;18.82;89.42
10474;BME280;5284;50.446;7.904;2023-07-16T06:01:26;98332.03;;;18.95;86.67
10474;BME280;5284;50.446;7.904;2023-07-16T06:06:31;98341.22;;;19.01;84.98
10474;BME280;5284;50.446;7.904;2023-07-16T06:11:33;98347.94;;;19.19;84.14
10474;BME280;5284;50.446;7.904;2023-07-16T06:16:37;98360.13;;;19.44;82.33
10474;BME280;5284;50.446;7.904;2023-07-16T06:21:41;98357.66;;;19.64;80.75
10474;BME280;5284;50.446;7.904;2023-07-16T06:26:44;98356.25;;;19.89;79.34
10474;BME280;5284;50.446;7.904;2023-07-16T06:31:54;98367.59;;;19.78;78.33
10474;BME280;5284;50.446;7.904;2023-07-16T06:37:00;98363.66;;;19.80;77.11
10474;BME280;5284;50.446;7.904;2023-07-16T06:42:03;98356.00;;;19.84;76.96
10474;BME280;5284;50.446;7.904;2023-07-16T06:47:07;98360.16;;;19.86;75.50
10474;BME280;5284;50.446;7.904;2023-07-16T06:52:19;98361.44;;;20.05;73.44
10474;BME280;5284;50.446;7.904;2023-07-16T06:57:23;98361.91;;;20.35;74.39
10474;BME280;5284;50.446;7.904;2023-07-16T07:02:26;98353.22;;;20.40;73.40
10474;BME280;5284;50.446;7.904;2023-07-16T07:07:30;98365.63;;;20.28;73.40
10474;BME280;5284;50.446;7.904;2023-07-16T07:12:33;98351.19;;;20.48;70.26
10474;BME280;5284;50.446;7.904;2023-07-16T07:17:39;98360.47;;;20.88;70.36
10474;BME280;5284;50.446;7.904;2023-07-16T07:22:45;98358.78;;;20.87;69.52
10474;BME280;5284;50.446;7.904;2023-07-16T07:27:48;98359.16;;;21.11;70.19
10474;BME280;5284;50.446;7.904;2023-07-16T07:32:51;98364.63;;;21.24;65.88
10474;BME280;5284;50.446;7.904;2023-07-16T07:37:56;98364.41;;;21.19;64.61
10474;BME280;5284;50.446;7.904;2023-07-16T07:42:58;98362.09;;;21.63;64.33
10474;BME280;5284;50.446;7.904;2023-07-16T07:48:02;98356.53;;;21.77;63.19
10474;BME280;5284;50.446;7.904;2023-07-16T07:53:06;98379.47;;;21.69;62.19
10474;BME280;5284;50.446;7.904;2023-07-16T07:58:09;98374.53;;;21.45;60.58
10474;BME280;5284;50.446;7.904;2023-07-16T08:03:12;98388.78;;;21.13;58.38
10474;BME280;5284;50.446;7.904;2023-07-16T08:08:16;98399.03;;;21.17;57.01
10474;BME280;5284;50.446;7.904;2023-07-16T08:13:19;98388.84;;;21.26;56.91
10474;BME280;5284;50.446;7.904;2023-07-16T08:18:22;98390.22;;;21.49;55.40
10474;BME280;5284;50.446;7.904;2023-07-16T08:23:27;98394.63;;;21.50;55.44
10474;BME280;5284;50.446;7.904;2023-07-16T08:28:30;98388.22;;;21.64;56.06
10474;BME280;5284;50.446;7.904;2023-07-16T08:33:33;98389.59;;;22.00;54.57
10474;BME280;5284;50.446;7.904;2023-07-16T08:38:37;98398.63;;;21.61;52.74
10474;BME280;5284;50.446;7.904;2023-07-16T08:43:40;98391.09;;;22.16;52.76
10474;BME280;5284;50.446;7.904;2023-07-16T08:48:44;98388.16;;;22.24;52.05
10474;BME280;5284;50.446;7.904;2023-07-16T08:53:49;98386.72;;;22.41;52.41
10474;BME280;5284;50.446;7.904;2023-07-16T08:58:53;98406.19;;;22.77;50.55
10474;BME280;5284;50.446;7.904;2023-07-16T09:03:58;98407.59;;;22.14;51.12
10474;BME280;5284;50.446;7.904;2023-07-16T09:09:03;98407.38;;;22.22;51.13
10474;BME280;5284;50.446;7.904;2023-07-16T09:14:05;98414.16;;;22.85;51.41
10474;BME280;5284;50.446;7.904;2023-07-16T09:19:09;98426.72;;;22.66;50.12
10474;BME280;5284;50.446;7.904;2023-07-16T09:24:16;98420.44;;;22.53;49.73
10474;BME280;5284;50.446;7.904;2023-07-16T09:29:24;98416.00;;;22.32;49.83
10474;BME280;5284;50.446;7.904;2023-07-16T09:34:29;98431.94;;;22.81;49.92
10474;BME280;5284;50.446;7.904;2023-07-16T09:39:36;98432.13;;;22.73;49.07
10474;BME280;5284;50.446;7.904;2023-07-16T09:44:40;98421.78;;;23.52;49.08
10474;BME280;5284;50.446;7.904;2023-07-16T09:49:44;98437.50;;;23.50;47.38
10474;BME280;5284;50.446;7.904;2023-07-16T09:54:50;98431.25;;;23.37;47.38
10474;BME280;5284;50.446;7.904;2023-07-16T09:59:58;98438.41;;;22.47;49.68
10474;BME280;5284;50.446;7.904;2023-07-16T10:05:14;98440.72;;;22.70;49.06
10474;BME280;5284;50.446;7.904;2023-07-16T10:10:19;98429.41;;;22.79;48.57
10474;BME280;5284;50.446;7.904;2023-07-16T10:15:25;98432.78;;;24.27;48.17
10474;BME280;5284;50.446;7.904;2023-07-16T10:20:30;98427.19;;;24.16;47.37
10474;BME280;5284;50.446;7.904;2023-07-16T10:25:35;98415.47;;;23.58;47.86
10474;BME280;5284;50.446;7.904;2023-07-16T10:30:38;98427.31;;;23.07;48.02
10474;BME280;5284;50.446;7.904;2023-07-16T10:35:41;98426.09;;;22.84;48.95
10474;BME280;5284;50.446;7.904;2023-07-16T10:40:46;98427.09;;;23.02;49.12
10474;BME280;5284;50.446;7.904;2023-07-16T10:45:50;98424.59;;;22.94;48.67
10474;BME280;5284;50.446;7.904;2023-07-16T10:50:53;98430.88;;;23.14;47.78
10474;BME280;5284;50.446;7.904;2023-07-16T10:55:58;98426.69;;;23.12;49.09
10474;BME280;5284;50.446;7.904;2023-07-16T11:01:02;98424.59;;;22.81;48.49
10474;BME280;5284;50.446;7.904;2023-07-16T11:06:06;98428.06;;;23.53;47.82
10474;BME280;5284;50.446;7.904;2023-07-16T11:11:11;98420.38;;;23.24;47.40
10474;BME280;5284;50.446;7.904;2023-07-16T11:16:15;98417.66;;;24.62;46.66
10474;BME280;5284;50.446;7.904;2023-07-16T11:21:19;98419.59;;;24.55;46.59
10474;BME280;5284;50.446;7.904;2023-07-16T11:26:23;98400.88;;;24.83;45.90
10474;BME280;5284;50.446;7.904;2023-07-16T11:31:26;98421.50;;;25.46;44.58
10474;BME280;5284;50.446;7.904;2023-07-16T11:36:29;98425.53;;;25.43;43.73
10474;BME280;5284;50.446;7.904;2023-07-16T11:41:34;98425.16;;;25.94;41.99
10474;BME280;5284;50.446;7.904;2023-07-16T11:46:37;98419.53;;;25.71;42.52
10474;BME280;5284;50.446;7.904;2023-07-16T11:51:40;98437.97;;;25.57;41.96
10474;BME280;5284;50.446;7.904;2023-07-16T11:56:46;98427.16;;;25.87;42.37
10474;BME280;5284;50.446;7.904;2023-07-16T12:01:49;98420.91;;;25.98;42.63
10474;BME280;5284;50.446;7.904;2023-07-16T12:06:52;98433.84;;;26.02;41.24
10474;BME280;5284;50.446;7.904;2023-07-16T12:11:57;98430.91;;;25.86;41.61
10474;BME280;5284;50.446;7.904;2023-07-16T12:17:00;98422.28;;;27.00;40.56
10474;BME280;5284;50.446;7.904;2023-07-16T12:22:04;98426.84;;;26.24;41.57
10474;BME280;5284;50.446;7.904;2023-07-16T12:27:09;98428.88;;;27.56;38.90
10474;BME280;5284;50.446;7.904;2023-07-16T12:32:13;98417.53;;;27.41;39.29
10474;BME280;5284;50.446;7.904;2023-07-16T12:37:16;98428.56;;;28.59;38.11
10474;BME280;5284;50.446;7.904;2023-07-16T12:42:20;98419.47;;;28.42;38.41
10474;BME280;5284;50.446;7.904;2023-07-16T12:47:23;98429.44;;;27.70;39.77
10474;BME280;5284;50.446;7.904;2023-07-16T12:52:26;98431.31;;;28.59;37.50
10474;BME280;5284;50.446;7.904;2023-07-16T12:57:30;98431.19;;;25.78;40.35
10474;BME280;5284;50.446;7.904;2023-07-16T13:02:33;98438.50;;;28.49;37.37
10474;BME280;5284;50.446;7.904;2023-07-16T13:07:36;98425.59;;;27.82;38.81
10474;BME280;5284;50.446;7.904;2023-07-16T13:12:43;98420.47;;;28.53;37.42
10474;BME280;5284;50.446;7.904;2023-07-16T13:17:45;98424.34;;;27.16;37.81
10474;BME280;5284;50.446;7.904;2023-07-16T13:22:49;98426.13;;;28.07;37.73
10474;BME280;5284;50.446;7.904;2023-07-16T13:27:54;98418.88;;;28.01;37.77
10474;BME280;5284;50.446;7.904;2023-07-16T13:32:56;98419.34;;;27.13;39.21
10474;BME280;5284;50.446;7.904;2023-07-16T13:37:59;98443.91;;;30.35;34.45
10474;BME280;5284;50.446;7.904;2023-07-16T13:43:04;98422.38;;;29.30;35.11
10474;BME280;5284;50.446;7.904;2023-07-16T13:48:07;98420.47;;;27.97;36.53
10474;BME280;5284;50.446;7.904;2023-07-16T13:53:10;98427.75;;;27.00;37.40
10474;BME280;5284;50.446;7.904;2023-07-16T13:58:14;98423.63;;;27.55;37.25
10474;BME280;5284;50.446;7.904;2023-07-16T14:03:17;98437.25;;;26.16;38.97
10474;BME280;5284;50.446;7.904;2023-07-16T14:08:20;98432.34;;;26.65;38.70
10474;BME280;5284;50.446;7.904;2023-07-16T14:13:26;98435.59;;;26.15;39.53
10474;BME280;5284;50.446;7.904;2023-07-16T14:18:29;98429.78;;;25.57;39.25
10474;BME280;5284;50.446;7.904;2023-07-16T14:23:32;98438.72;;;26.00;39.56
10474;BME280;5284;50.446;7.904;2023-07-16T14:28:37;98429.81;;;26.52;39.04
10474;BME280;5284;50.446;7.904;2023-07-16T14:33:40;98426.44;;;26.91;38.34
10474;BME280;5284;50.446;7.904;2023-07-16T14:38:42;98428.81;;;26.99;38.69
10474;BME280;5284;50.446;7.904;2023-07-16T14:43:47;98439.03;;;26.80;38.84
10474;BME280;5284;50.446;7.904;2023-07-16T14:48:51;98435.81;;;26.61;38.94
10474;BME280;5284;50.446;7.904;2023-07-16T14:53:57;98427.25;;;26.68;40.04
10474;BME280;5284;50.446;7.904;2023-07-16T14:59:02;98436.56;;;25.91;38.95
10474;BME280;5284;50.446;7.904;2023-07-16T15:04:05;98431.72;;;26.52;39.47
10474;BME280;5284;50.446;7.904;2023-07-16T15:09:08;98427.09;;;27.16;39.24
10474;BME280;5284;50.446;7.904;2023-07-16T15:14:13;98421.06;;;27.88;38.56
10474;BME280;5284;50.446;7.904;2023-07-16T15:19:16;98417.25;;;27.66;38.38
10474;BME280;5284;50.446;7.904;2023-07-16T15:24:20;98418.19;;;27.94;37.79
10474;BME280;5284;50.446;7.904;2023-07-16T15:29:24;98422.78;;;28.89;36.83
10474;BME280;5284;50.446;7.904;2023-07-16T15:34:27;98429.50;;;30.28;35.42
10474;BME280;5284;50.446;7.904;2023-07-16T15:39:30;98442.06;;;29.43;36.26
10474;BME280;5284;50.446;7.904;2023-07-16T15:44:34;98442.38;;;30.22;34.47
10474;BME280;5284;50.446;7.904;2023-07-16T15:49:37;98439.59;;;33.37;31.83
10474;BME280;5284;50.446;7.904;2023-07-16T15:54:40;98441.84;;;35.25;30.60
10474;BME280;5284;50.446;7.904;2023-07-16T15:59:45;98435.44;;;35.86;29.04
10474;BME280;5284;50.446;7.904;2023-07-16T16:04:48;98439.81;;;37.95;27.58
10474;BME280;5284;50.446;7.904;2023-07-16T16:09:51;98439.00;;;39.33;26.11
10474;BME280;5284;50.446;7.904;2023-07-16T16:14:55;98426.38;;;40.99;25.17
10474;BME280;5284;50.446;7.904;2023-07-16T16:19:58;98416.78;;;38.57;26.01
10474;BME280;5284;50.446;7.904;2023-07-16T16:25:00;98415.16;;;37.25;26.66
10474;BME280;5284;50.446;7.904;2023-07-16T16:30:07;98413.34;;;39.53;25.66
10474;BME280;5284;50.446;7.904;2023-07-16T16:35:10;98419.28;;;41.10;24.58
10474;BME280;5284;50.446;7.904;2023-07-16T16:40:13;98417.66;;;41.35;23.95
10474;BME280;5284;50.446;7.904;2023-07-16T16:45:17;98413.22;;;40.35;24.79
10474;BME280;5284;50.446;7.904;2023-07-16T16:50:20;98401.25;;;37.43;26.81
10474;BME280;5284;50.446;7.904;2023-07-16T16:55:23;98418.41;;;40.50;24.97
10474;BME280;5284;50.446;7.904;2023-07-16T17:00:28;98416.00;;;40.18;24.55
10474;BME280;5284;50.446;7.904;2023-07-16T17:05:31;98419.66;;;39.45;25.14
10474;BME280;5284;50.446;7.904;2023-07-16T17:10:34;98416.88;;;39.45;24.43
10474;BME280;5284;50.446;7.904;2023-07-16T17:15:43;98412.53;;;39.83;24.59
10474;BME280;5284;50.446;7.904;2023-07-16T17:20:46;98409.56;;;36.56;26.52
10474;BME280;5284;50.446;7.904;2023-07-16T17:25:49;98403.88;;;35.49;27.85
10474;BME280;5284;50.446;7.904;2023-07-16T17:30:55;98411.53;;;34.52;29.25
10474;BME280;5284;50.446;7.904;2023-07-16T17:36:00;98404.84;;;33.99;29.30
10474;BME280;5284;50.446;7.904;2023-07-16T17:41:04;98407.03;;;31.20;31.81
10474;BME280;5284;50.446;7.904;2023-07-16T17:46:08;98417.91;;;29.62;33.50
10474;BME280;5284;50.446;7.904;2023-07-16T17:51:12;98412.94;;;28.32;35.48
10474;BME280;5284;50.446;7.904;2023-07-16T17:56:18;98412.81;;;27.25;37.06
10474;BME280;5284;50.446;7.904;2023-07-16T18:01:22;98409.44;;;27.00;37.00
10474;BME280;5284;50.446;7.904;2023-07-16T18:06:25;98415.09;;;26.06;38.30
10474;BME280;5284;50.446;7.904;2023-07-16T18:11:28;98425.63;;;25.55;39.18
10474;BME280;5284;50.446;7.904;2023-07-16T18:16:32;98427.22;;;24.95;39.56
10474;BME280;5284;50.446;7.904;2023-07-16T18:21:36;98433.75;;;24.70;40.79
10474;BME280;5284;50.446;7.904;2023-07-16T18:26:51;98436.94;;;24.30;41.26
10474;BME280;5284;50.446;7.904;2023-07-16T18:31:57;98446.97;;;23.98;41.82
10474;BME280;5284;50.446;7.904;2023-07-16T18:36:59;98438.50;;;23.69;42.61
10474;BME280;5284;50.446;7.904;2023-07-16T18:42:03;98429.34;;;23.44;43.26
10474;BME280;5284;50.446;7.904;2023-07-16T18:47:08;98434.84;;;23.12;43.53
10474;BME280;5284;50.446;7.904;2023-07-16T18:52:11;98433.19;;;22.85;44.66
10474;BME280;5284;50.446;7.904;2023-07-16T18:57:16;98436.94;;;22.71;45.20
10474;BME280;5284;50.446;7.904;2023-07-16T19:02:20;98434.84;;;22.47;45.80
10474;BME280;5284;50.446;7.904;2023-07-16T19:07:24;98434.38;;;22.30;45.83
10474;BME280;5284;50.446;7.904;2023-07-16T19:12:28;98437.84;;;21.98;48.20
10474;BME280;5284;50.446;7.904;2023-07-16T19:17:32;98448.44;;;21.80;47.92
10474;BME280;5284;50.446;7.904;2023-07-16T19:22:35;98452.03;;;21.47;49.74
10474;BME280;5284;50.446;7.904;2023-07-16T19:27:38;98461.09;;;21.33;49.19
10474;BME280;5284;50.446;7.904;2023-07-16T19:32:42;98468.00;;;21.02;51.13
10474;BME280;5284;50.446;7.904;2023-07-16T19:37:47;98466.72;;;20.77;51.08
10474;BME280;5284;50.446;7.904;2023-07-16T19:42:49;98479.06;;;20.58;50.79
10474;BME280;5284;50.446;7.904;2023-07-16T19:47:54;98473.31;;;20.47;51.41
10474;BME280;5284;50.446;7.904;2023-07-16T19:52:57;98482.28;;;20.26;52.77
10474;BME280;5284;50.446;7.904;2023-07-16T19:57:59;98483.84;;;20.14;52.80
10474;BME280;5284;50.446;7.904;2023-07-16T20:03:04;98490.03;;;19.94;53.66
10474;BME280;5284;50.446;7.904;2023-07-16T20:08:08;98496.38;;;19.87;52.86
10474;BME280;5284;50.446;7.904;2023-07-16T20:13:15;98497.06;;;19.74;53.41
10474;BME280;5284;50.446;7.904;2023-07-16T20:18:20;98496.25;;;19.59;54.02
10474;BME280;5284;50.446;7.904;2023-07-16T20:23:23;98490.53;;;19.54;54.49
10474;BME280;5284;50.446;7.904;2023-07-16T20:28:27;98494.00;;;19.48;54.25
10474;BME280;5284;50.446;7.904;2023-07-16T20:33:31;98495.59;;;19.28;56.29
10474;BME280;5284;50.446;7.904;2023-07-16T20:38:34;98505.75;;;19.04;58.46
10474;BME280;5284;50.446;7.904;2023-07-16T20:43:37;98500.03;;;18.84;60.42
10474;BME280;5284;50.446;7.904;2023-07-16T20:48:41;98497.28;;;18.55;62.94
10474;BME280;5284;50.446;7.904;2023-07-16T20:53:45;98506.28;;;18.48;62.67
10474;BME280;5284;50.446;7.904;2023-07-16T20:58:48;98504.41;;;18.26;64.39
10474;BME280;5284;50.446;7.904;2023-07-16T21:03:53;98500.34;;;18.00;68.38
10474;BME280;5284;50.446;7.904;2023-07-16T21:08:56;98508.69;;;17.82;71.56
10474;BME280;5284;50.446;7.904;2023-07-16T21:13:59;98504.06;;;17.60;74.90
10474;BME280;5284;50.446;7.904;2023-07-16T21:19:03;98507.84;;;17.43;75.97
10474;BME280;5284;50.446;7.904;2023-07-16T21:24:06;98507.38;;;17.24;77.21
10474;BME280;5284;50.446;7.904;2023-07-16T21:29:09;98509.44;;;17.06;79.27
10474;BME280;5284;50.446;7.904;2023-07-16T21:34:13;98506.78;;;16.90;81.24
10474;BME280;5284;50.446;7.904;2023-07-16T21:39:16;98513.69;;;16.77;84.03
10474;BME280;5284;50.446;7.904;2023-07-16T21:44:20;98514.53;;;16.61;86.56
10474;BME280;5284;50.446;7.904;2023-07-16T21:49:24;98515.22;;;16.55;88.14
10474;BME280;5284;50.446;7.904;2023-07-16T21:54:27;98510.66;;;16.56;86.73
10474;BME280;5284;50.446;7.904;2023-07-16T21:59:30;98513.03;;;16.43;86.50
10474;BME280;5284;50.446;7.904;2023-07-16T22:04:34;98517.66;;;16.33;87.39
10474;BME280;5284;50.446;7.904;2023-07-16T22:09:37;98518.53;;;16.25;87.07
10474;BME280;5284;50.446;7.904;2023-07-16T22:14:40;98517.50;;;16.18;87.43
10474;BME280;5284;50.446;7.904;2023-07-16T22:19:45;98516.13;;;16.06;87.40
10474;BME280;5284;50.446;7.904;2023-07-16T22:24:48;98517.44;;;15.94;88.97
10474;BME280;5284;50.446;7.904;2023-07-16T22:29:50;98515.06;;;15.83;90.95
10474;BME280;5284;50.446;7.904;2023-07-16T22:34:55;98526.13;;;15.72;92.62
10474;BME280;5284;50.446;7.904;2023-07-16T22:39:58;98526.25;;;15.63;93.91
10474;BME280;5284;50.446;7.904;2023-07-16T22:45:01;98524.06;;;15.58;93.75
10474;BME280;5284;50.446;7.904;2023-07-16T22:50:07;98518.50;;;15.60;92.17
10474;BME280;5284;50.446;7.904;2023-07-16T22:55:10;98526.25;;;15.63;92.82
10474;BME280;5284;50.446;7.904;2023-07-16T23:00:13;98525.75;;;15.67;92.90
10474;BME280;5284;50.446;7.904;2023-07-16T23:05:18;98521.06;;;15.69;96.67
10474;BME280;5284;50.446;7.904;2023-07-16T23:10:22;98524.09;;;15.74;97.85
10474;BME280;5284;50.446;7.904;2023-07-16T23:15:25;98520.59;;;15.74;97.06
10474;BME280;5284;50.446;7.904;2023-07-16T23:20:29;98512.34;;;15.75;98.35
10474;BME280;5284;50.446;7.904;2023-07-16T23:25:32;98519.91;;;15.72;97.67
10474;BME280;5284;50.446;7.904;2023-07-16T23:30:38;98511.19;;;15.78;97.49
10474;BME280;5284;50.446;7.904;2023-07-16T23:35:43;98517.44;;;15.86;95.47
10474;BME280;5284;50.446;7.904;2023-07-16T23:40:46;98512.38;;;15.83;96.03
10474;BME280;5284;50.446;7.904;2023-07-16T23:45:49;98514.19;;;15.75;97.53
10474;BME280;5284;50.446;7.904;2023-07-16T23:50:53;98518.22;;;15.71;98.01
10474;BME280;5284;50.446;7.904;2023-07-16T23:55:56;98519.50;;;15.59;99.89
